Time;durP1;ratioP1;P1;durP2;ratioP2;P2;SDS_P1;SDS_P2;PMS_P1;PMS_P2;Temp;Humidity;BMP_temperature;BMP_pressure;BME280_temperature;BME280_humidity;BME280_pressure;Samples;Min_cycle;Max_cycle;Signal;HPM_P1;HPM_P2
2022/04/23 00:00:15;;;;;;;6.33;5.83;;;;;;;21.70;35.52;94052.19;6156656;28;103096;-56
2022/04/23 00:03:18;;;;;;;6.27;5.50;;;;;;;21.72;35.10;94047.31;6163431;28;103062;-56
2022/04/23 00:06:20;;;;;;;6.60;6.00;;;;;;;21.65;35.05;94055.03;6139334;28;103141;-56
2022/04/23 00:09:22;;;;;;;8.10;6.70;;;;;;;21.70;35.10;94057.50;6152440;28;103646;-56
2022/04/23 00:12:25;;;;;;;9.60;6.73;;;;;;;21.67;34.94;94050.16;6163157;28;104539;-56
2022/04/23 00:15:28;;;;;;;7.10;6.40;;;;;;;21.68;34.87;94065.06;6162312;28;103080;-56
2022/04/23 00:18:30;;;;;;;6.63;6.13;;;;;;;21.66;34.57;94053.94;6176849;28;104051;-56
2022/04/23 00:21:32;;;;;;;6.70;6.00;;;;;;;21.69;34.99;94055.97;6153761;28;104517;-56
2022/04/23 00:24:34;;;;;;;6.20;5.60;;;;;;;21.69;34.89;94053.28;6167825;28;103211;-56
2022/04/23 00:27:36;;;;;;;5.43;4.97;;;;;;;21.70;34.90;94060.94;6173360;28;103744;-56
2022/04/23 00:30:38;;;;;;;5.50;4.60;;;;;;;21.67;34.91;94052.81;6162074;28;104167;-55
2022/04/23 00:33:40;;;;;;;5.83;4.73;;;;;;;21.68;34.50;94063.16;6153226;28;104513;-56
2022/04/23 00:36:42;;;;;;;4.23;3.83;;;;;;;21.62;34.62;94061.00;6162772;28;103326;-55
2022/04/23 00:39:43;;;;;;;4.13;3.73;;;;;;;21.63;34.17;94041.28;6172893;28;103249;-56
2022/04/23 00:42:52;;;;;;;4.37;3.97;;;;;;;21.63;34.19;94038.59;6180170;28;103033;-56
2022/04/23 00:45:54;;;;;;;4.37;3.97;;;;;;;21.65;34.46;94053.16;6160773;28;103174;-56
2022/04/23 00:48:58;;;;;;;4.33;3.57;;;;;;;21.65;34.39;94041.72;6163503;28;104014;-55
2022/04/23 00:52:00;;;;;;;4.83;3.90;;;;;;;21.62;34.33;94035.16;6166477;28;104089;-56
2022/04/23 00:55:04;;;;;;;3.90;3.60;;;;;;;21.62;34.23;94034.41;6161860;28;103907;-56
2022/04/23 00:58:06;;;;;;;3.87;3.47;;;;;;;21.65;34.18;94037.19;6161647;28;103084;-56
2022/04/23 01:01:07;;;;;;;4.73;4.20;;;;;;;21.63;33.97;94043.94;6179904;28;103997;-56
2022/04/23 01:04:12;;;;;;;6.43;4.00;;;;;;;21.65;33.93;94044.38;6177618;28;103980;-56
2022/04/23 01:07:15;;;;;;;4.97;3.90;;;;;;;21.62;34.28;94039.72;6151577;28;103111;-56
2022/04/23 01:10:18;;;;;;;4.47;4.07;;;;;;;21.61;34.46;94033.63;6177236;28;103332;-56
2022/04/23 01:13:19;;;;;;;4.80;3.87;;;;;;;21.58;34.25;94041.47;6161576;28;103852;-54
2022/04/23 01:16:21;;;;;;;3.60;3.30;;;;;;;21.59;34.40;94056.34;6166143;28;104344;-53
2022/04/23 01:19:23;;;;;;;4.20;3.10;;;;;;;21.59;34.32;94054.47;6154713;28;103030;-52
2022/04/23 01:22:25;;;;;;;6.23;3.90;;;;;;;21.58;33.97;94052.13;6162381;28;103002;-52
2022/04/23 01:25:26;;;;;;;3.73;3.43;;;;;;;21.59;34.21;94043.03;6161632;28;103901;-52
2022/04/23 01:28:30;;;;;;;4.00;3.50;;;;;;;21.61;33.97;94027.50;6153424;28;103980;-52
2022/04/23 01:31:32;;;;;;;6.83;4.30;;;;;;;21.59;33.29;94021.75;6160750;28;103368;-52
2022/04/23 01:34:34;;;;;;;6.17;3.83;;;;;;;21.58;33.02;94042.25;6161174;28;103077;-52
2022/04/23 01:37:36;;;;;;;5.27;3.77;;;;;;;21.58;33.16;94060.13;6162308;28;103194;-53
2022/04/23 01:40:38;;;;;;;6.20;4.30;;;;;;;21.56;33.03;94051.69;6176905;28;104165;-53
2022/04/23 01:43:40;;;;;;;6.40;3.67;;;;;;;21.58;33.15;94057.47;6183072;28;103063;-52
2022/04/23 01:46:42;;;;;;;4.00;3.60;;;;;;;21.57;33.27;94070.00;6162278;28;104089;-54
2022/04/23 01:49:44;;;;;;;4.83;4.00;;;;;;;21.58;33.18;94073.44;6161322;28;104327;-53
2022/04/23 01:52:47;;;;;;;5.40;3.47;;;;;;;21.59;33.53;94082.97;6175024;28;103402;-53
2022/04/23 01:55:53;;;;;;;4.87;3.43;;;;;;;21.58;33.11;94084.84;6166532;28;104205;-54
2022/04/23 01:58:54;;;;;;;4.27;3.20;;;;;;;21.57;33.12;94085.19;6161805;28;103170;-53
2022/04/23 02:01:58;;;;;;;4.97;3.70;;;;;;;21.59;33.47;94082.97;6156840;28;104199;-54
2022/04/23 02:05:01;;;;;;;4.27;3.00;;;;;;;21.58;33.52;94092.06;6168084;28;102971;-54
2022/04/23 02:08:03;;;;;;;5.83;3.40;;;;;;;21.56;33.03;94099.59;6160617;28;103057;-53
2022/04/23 02:11:05;;;;;;;4.23;3.13;;;;;;;21.55;33.58;94090.06;6161716;28;103983;-53
2022/04/23 02:14:06;;;;;;;3.70;3.40;;;;;;;21.52;33.72;94081.63;6149856;28;103155;-54
2022/04/23 02:17:09;;;;;;;4.30;3.37;;;;;;;21.52;33.54;94100.25;6162582;28;103118;-53
2022/04/23 02:20:13;;;;;;;3.97;3.30;;;;;;;21.50;33.73;94088.34;6160930;28;103107;-53
2022/04/23 02:23:15;;;;;;;3.20;2.97;;;;;;;21.53;33.63;94085.06;6162050;28;104108;-53
2022/04/23 02:26:17;;;;;;;3.87;3.33;;;;;;;21.53;33.23;94093.03;6151124;28;103998;-54
2022/04/23 02:29:19;;;;;;;5.70;3.10;;;;;;;21.54;33.44;94110.56;6161079;28;104652;-54
2022/04/23 02:32:21;;;;;;;6.63;3.27;;;;;;;21.51;33.57;94104.03;6160659;28;103758;-54
2022/04/23 02:35:23;;;;;;;3.43;3.13;;;;;;;21.51;33.94;94097.91;6160782;28;103320;-53
2022/04/23 02:38:24;;;;;;;4.77;3.10;;;;;;;21.49;33.93;94108.88;6163432;28;102796;-53
2022/04/23 02:41:26;;;;;;;3.30;3.00;;;;;;;21.49;33.97;94121.41;6167801;28;104316;-54
2022/04/23 02:44:28;;;;;;;3.93;3.63;;;;;;;21.48;33.66;94119.84;6160648;28;104214;-54
2022/04/23 02:47:45;;;;;;;3.00;2.70;;;;;;;21.50;33.44;94113.09;6156840;28;103381;-54
2022/04/23 02:50:46;;;;;;;6.60;3.30;;;;;;;21.50;33.73;94118.41;6155374;28;102827;-54
2022/04/23 02:53:48;;;;;;;3.03;2.80;;;;;;;21.49;34.26;94116.84;6161006;28;103406;-54
2022/04/23 02:56:50;;;;;;;5.23;4.10;;;;;;;21.49;33.65;94111.53;6159737;28;103195;-53
2022/04/23 02:59:52;;;;;;;3.20;2.77;;;;;;;21.48;34.17;94109.97;6150107;28;103054;-53
2022/04/23 03:02:54;;;;;;;4.03;2.97;;;;;;;21.46;34.21;94098.88;6158967;28;103300;-54
2022/04/23 03:05:56;;;;;;;3.87;2.60;;;;;;;21.48;34.05;94104.66;6168333;28;102967;-54
2022/04/23 03:09:02;;;;;;;3.00;2.80;;;;;;;21.47;33.68;94100.44;6186171;28;103266;-54
2022/04/23 03:12:04;;;;;;;3.87;2.70;;;;;;;21.48;33.86;94091.34;6159794;28;105308;-54
2022/04/23 03:15:09;;;;;;;3.83;3.10;;;;;;;21.45;33.81;94089.31;6160575;28;103631;-54
2022/04/23 03:18:13;;;;;;;5.10;3.17;;;;;;;21.48;33.77;94094.00;6172080;28;103316;-53
2022/04/23 03:21:14;;;;;;;3.10;2.80;;;;;;;21.44;34.00;94085.09;6178161;28;103112;-54
2022/04/23 03:24:16;;;;;;;3.20;2.73;;;;;;;21.47;34.20;94081.78;6166246;28;103885;-54
2022/04/23 03:27:18;;;;;;;4.30;3.00;;;;;;;21.44;34.04;94085.09;6160061;28;103193;-54
2022/04/23 03:30:20;;;;;;;3.00;2.50;;;;;;;21.43;33.92;94086.22;6164277;28;104286;-54
2022/04/23 03:33:22;;;;;;;5.43;3.40;;;;;;;21.43;34.22;94094.19;6152142;28;103274;-54
2022/04/23 03:36:23;;;;;;;7.00;2.83;;;;;;;21.44;34.42;94095.75;6158115;28;103704;-53
2022/04/23 03:39:25;;;;;;;4.30;3.03;;;;;;;21.46;34.74;94092.78;6159026;28;103045;-54
2022/04/23 03:42:27;;;;;;;3.53;3.23;;;;;;;21.45;34.28;94097.31;6159457;28;104215;-54
2022/04/23 03:45:32;;;;;;;3.43;3.13;;;;;;;21.45;34.08;94097.31;6164571;28;103455;-53
2022/04/23 03:48:34;;;;;;;5.87;2.87;;;;;;;21.45;34.25;94105.31;6159838;28;103203;-54
2022/04/23 03:51:36;;;;;;;3.30;2.90;;;;;;;21.45;33.87;94105.31;6168638;28;104351;-53
2022/04/23 03:54:38;;;;;;;4.00;3.20;;;;;;;21.43;34.34;94109.38;6185174;28;103065;-54
2022/04/23 03:57:51;;;;;;;3.13;2.90;;;;;;;21.43;34.12;94115.50;6175139;28;104068;-54
2022/04/23 04:00:53;;;;;;;5.03;2.70;;;;;;;21.44;34.28;94122.38;6166375;28;103544;-53
2022/04/23 04:03:54;;;;;;;3.77;2.80;;;;;;;21.44;33.78;94130.34;6158807;28;103607;-53
2022/04/23 04:06:56;;;;;;;4.67;3.00;;;;;;;21.43;34.20;94142.09;6156250;28;104050;-54
2022/04/23 04:10:01;;;;;;;3.13;2.70;;;;;;;21.40;34.01;94134.00;6157963;28;103249;-54
2022/04/23 04:13:02;;;;;;;4.63;3.10;;;;;;;21.43;34.18;94151.97;6139778;28;104145;-54
2022/04/23 04:16:04;;;;;;;5.10;3.57;;;;;;;21.43;34.38;94144.00;6173834;28;104068;-53
2022/04/23 04:19:06;;;;;;;4.47;3.30;;;;;;;21.41;34.45;94141.66;6165703;28;103181;-51
2022/04/23 04:22:08;;;;;;;5.00;3.30;;;;;;;21.43;34.56;94146.66;6162729;28;103819;-51
2022/04/23 04:25:13;;;;;;;3.67;3.00;;;;;;;21.43;34.29;94152.75;6163582;28;102946;-52
2022/04/23 04:28:15;;;;;;;5.07;3.40;;;;;;;21.41;34.36;94146.97;6171482;28;102999;-52
2022/04/23 04:34:37;;;;;;;3.40;3.10;;;;;;;21.43;34.12;94150.09;6173422;28;103610;-52
2022/04/23 04:37:39;;;;;;;6.50;3.13;;;;;;;21.45;34.28;94153.22;6164265;28;103437;-52
2022/04/23 04:40:41;;;;;;;5.90;3.10;;;;;;;21.43;34.11;94150.09;6174314;28;103568;-52
2022/04/23 04:43:43;;;;;;;5.43;3.53;;;;;;;21.40;34.43;94149.97;6152994;28;103130;-52
2022/04/23 04:46:44;;;;;;;5.67;3.50;;;;;;;21.40;34.44;94166.72;6163264;28;104263;-51
2022/04/23 04:49:46;;;;;;;5.40;3.77;;;;;;;21.40;34.82;94160.63;6162888;28;104220;-52
2022/04/23 04:52:48;;;;;;;4.03;3.60;;;;;;;21.42;34.43;94163.72;6158002;28;104342;-52
2022/04/23 04:55:50;;;;;;;7.00;4.27;;;;;;;21.41;34.28;94162.94;6181437;28;103226;-51
2022/04/23 04:58:52;;;;;;;5.83;4.83;;;;;;;21.42;34.32;94158.41;6173671;28;103107;-51
2022/04/23 05:01:54;;;;;;;6.17;4.70;;;;;;;21.42;34.55;94169.06;6162825;28;103326;-52
2022/04/23 05:04:56;;;;;;;5.73;4.80;;;;;;;21.42;34.50;94177.03;6174793;28;104165;-51
2022/04/23 05:07:58;;;;;;;6.83;5.20;;;;;;;21.42;34.32;94175.16;6167352;28;104988;-51
2022/04/23 05:11:00;;;;;;;5.70;4.77;;;;;;;21.43;34.75;94176.72;6178841;28;103575;-52
2022/04/23 05:14:02;;;;;;;5.53;4.90;;;;;;;21.45;34.79;94189.69;6187250;28;104107;-51
2022/04/23 05:17:03;;;;;;;9.80;4.70;;;;;;;21.44;34.84;94199.56;6173402;28;104397;-52
2022/04/23 05:20:06;;;;;;;5.77;4.10;;;;;;;21.44;34.42;94204.88;6137545;28;104529;-52
2022/04/23 05:23:07;;;;;;;7.17;4.30;;;;;;;21.46;34.11;94223.19;6162226;28;103406;-51
2022/04/23 05:26:09;;;;;;;5.10;4.60;;;;;;;21.45;34.61;94230.41;6163190;28;103961;-51
2022/04/23 05:29:11;;;;;;;5.70;4.70;;;;;;;21.46;34.54;94245.25;6152367;28;103219;-52
2022/04/23 05:32:13;;;;;;;4.93;4.20;;;;;;;21.47;34.05;94246.81;6170020;28;104219;-51
2022/04/23 05:35:15;;;;;;;4.90;4.03;;;;;;;21.47;34.24;94240.72;6176387;28;104256;-52
2022/04/23 05:38:20;;;;;;;7.43;3.93;;;;;;;21.44;34.53;94242.16;6155890;28;103606;-53
2022/04/23 05:41:23;;;;;;;8.80;4.87;;;;;;;21.45;34.46;94243.72;6177268;28;103308;-52
2022/04/23 05:44:25;;;;;;;4.10;3.70;;;;;;;21.47;34.47;94256.69;6183007;28;104234;-51
2022/04/23 05:47:26;;;;;;;4.33;3.37;;;;;;;21.46;34.15;94245.25;6162249;28;104285;-52
2022/04/23 05:50:28;;;;;;;5.13;3.87;;;;;;;21.47;34.29;94254.03;6155113;28;104028;-52
2022/04/23 05:53:30;;;;;;;5.23;3.77;;;;;;;21.45;34.11;94249.03;6161850;28;103203;-52
2022/04/23 05:56:32;;;;;;;6.00;3.93;;;;;;;21.46;34.22;94244.47;6162136;28;104292;-52
2022/04/23 05:59:33;;;;;;;5.30;4.00;;;;;;;21.46;34.57;94249.81;6162424;28;103190;-52
2022/04/23 06:02:35;;;;;;;4.70;4.10;;;;;;;21.47;34.61;94241.50;6158586;28;103192;-52
2022/04/23 06:05:39;;;;;;;5.03;4.47;;;;;;;21.49;34.44;94241.97;6186225;28;103722;-52
2022/04/23 06:08:42;;;;;;;5.30;3.73;;;;;;;21.50;34.66;94240.84;6172124;28;103983;-52
2022/04/23 06:11:43;;;;;;;7.30;4.40;;;;;;;21.51;34.37;94241.66;6162800;28;103013;-52
2022/04/23 06:14:45;;;;;;;4.37;3.97;;;;;;;21.53;34.51;94250.09;6166087;28;104373;-52
2022/04/23 06:17:47;;;;;;;7.03;4.33;;;;;;;21.55;34.28;94247.13;6185468;28;103066;-52
2022/04/23 06:20:48;;;;;;;6.40;3.60;;;;;;;21.55;34.67;94249.78;6172909;28;103426;-54
2022/04/23 06:23:50;;;;;;;7.20;4.07;;;;;;;21.63;34.19;94251.59;6151301;28;104213;-55
2022/04/23 06:26:52;;;;;;;5.40;4.27;;;;;;;21.74;34.12;94258.13;6173726;28;103116;-54
2022/04/23 06:29:54;;;;;;;4.53;3.47;;;;;;;21.79;34.45;94250.72;6181030;28;103242;-54
2022/04/23 06:32:55;;;;;;;3.47;3.17;;;;;;;21.89;34.30;94249.59;6161024;28;103133;-55
2022/04/23 06:35:57;;;;;;;5.03;4.10;;;;;;;21.89;34.74;94246.94;6150496;28;103332;-52
2022/04/23 06:38:59;;;;;;;6.13;3.80;;;;;;;21.96;34.37;94252.53;6172383;28;103945;-51
2022/04/23 06:42:01;;;;;;;4.60;3.13;;;;;;;22.04;34.55;94253.59;6185883;28;104285;-52
2022/04/23 06:45:03;;;;;;;4.00;3.40;;;;;;;22.09;34.76;94240.06;6186448;28;104198;-51
2022/04/23 06:48:05;;;;;;;4.37;3.57;;;;;;;22.15;34.66;94243.31;6154722;28;104061;-51
2022/04/23 06:51:07;;;;;;;4.23;3.70;;;;;;;22.21;34.58;94242.78;6171105;28;103861;-52
2022/04/23 06:54:09;;;;;;;4.00;3.23;;;;;;;22.24;34.88;94241.38;6168682;28;103107;-51
2022/04/23 06:57:11;;;;;;;5.47;3.13;;;;;;;22.32;34.76;94243.16;6165318;28;103156;-52
2022/04/23 07:00:13;;;;;;;5.07;3.43;;;;;;;22.39;34.51;94243.44;6159461;28;103040;-51
2022/04/23 07:03:15;;;;;;;3.40;3.10;;;;;;;22.44;34.70;94248.56;6160692;28;104206;-51
2022/04/23 07:06:17;;;;;;;5.13;3.93;;;;;;;22.51;34.67;94258.69;6162099;28;104350;-54
2022/04/23 07:09:19;;;;;;;4.50;3.50;;;;;;;22.58;34.71;94257.09;6174094;28;103086;-52
2022/04/23 07:12:20;;;;;;;3.77;3.40;;;;;;;22.63;34.21;94264.88;6184755;28;104064;-51
2022/04/23 07:15:23;;;;;;;4.37;3.90;;;;;;;22.65;34.64;94257.31;6167353;28;103040;-52
2022/04/23 07:18:25;;;;;;;11.17;10.07;;;;;;;22.74;35.83;94265.25;6167039;28;103304;-52
2022/04/23 07:21:27;;;;;;;10.20;8.70;;;;;;;22.76;35.34;94272.94;6162847;28;104377;-52
2022/04/23 07:24:29;;;;;;;10.70;9.60;;;;;;;22.79;35.46;94270.38;6159715;28;103612;-52
2022/04/23 07:27:30;;;;;;;8.50;7.73;;;;;;;22.80;35.61;94279.94;6159818;28;104059;-55
2022/04/23 07:30:34;;;;;;;6.07;5.57;;;;;;;22.65;36.64;94281.34;6165035;28;102996;-55
2022/04/23 07:40:21;;;;;;;10.77;5.80;;;;;;;22.55;36.37;94295.06;6155501;28;104254;-52
2022/04/23 07:43:23;;;;;;;8.07;6.00;;;;;;;22.54;36.90;94296.16;6164654;28;103330;-52
2022/04/23 07:46:25;;;;;;;6.00;5.40;;;;;;;22.55;36.35;94297.72;6175806;28;103051;-52
2022/04/23 07:49:27;;;;;;;10.13;5.97;;;;;;;22.55;36.88;94299.59;6167342;28;104241;-53
2022/04/23 07:52:29;;;;;;;11.13;6.40;;;;;;;22.61;39.07;94296.44;6162656;28;103465;-56
2022/04/23 07:55:36;;;;;;;8.70;6.60;;;;;;;22.61;39.44;94309.78;6153723;28;105638;-54
2022/04/23 07:58:38;;;;;;;7.37;6.50;;;;;;;22.47;39.36;94298.56;6185003;28;102977;-54
2022/04/23 08:01:40;;;;;;;8.83;6.20;;;;;;;22.40;39.65;94304.41;6164059;28;103955;-54
2022/04/23 08:04:42;;;;;;;6.40;5.80;;;;;;;22.37;38.73;94298.97;6164491;28;103975;-54
2022/04/23 08:07:44;;;;;;;8.83;5.97;;;;;;;22.31;38.52;94302.91;6160472;28;103032;-54
2022/04/23 08:10:47;;;;;;;8.30;5.83;;;;;;;22.26;39.10;94305.78;6162863;28;104506;-54
2022/04/23 08:13:52;;;;;;;8.70;6.63;;;;;;;22.22;38.91;94307.53;6164316;28;103463;-53
2022/04/23 08:16:54;;;;;;;8.73;5.60;;;;;;;22.24;39.01;94313.31;6135152;28;103979;-53
2022/04/23 08:19:56;;;;;;;7.37;5.80;;;;;;;22.25;39.88;94322.88;6134620;28;103267;-54
2022/04/23 08:22:57;;;;;;;15.53;8.77;;;;;;;22.32;43.82;94317.78;6157853;28;103382;-53
2022/04/23 08:26:03;;;;;;;9.43;7.30;;;;;;;22.36;41.77;94318.72;6173055;28;104144;-54
2022/04/23 08:32:25;;;;;;;10.17;7.20;;;;;;;22.23;42.96;94314.44;6163530;28;104030;-53
2022/04/23 08:35:27;;;;;;;14.63;7.03;;;;;;;22.37;42.77;94321.06;6163744;28;103457;-54
2022/04/23 08:38:29;;;;;;;9.27;7.23;;;;;;;22.29;42.62;94319.22;6178351;28;104070;-53
2022/04/23 08:41:31;;;;;;;12.43;7.50;;;;;;;22.28;42.45;94327.56;6178143;28;104020;-53
2022/04/23 08:44:41;;;;;;;10.57;7.30;;;;;;;22.21;42.72;94321.97;6171460;28;104333;-54
2022/04/23 08:47:44;;;;;;;13.00;8.00;;;;;;;22.22;42.88;94332.31;6171328;28;104094;-54
2022/04/23 08:50:50;;;;;;;10.13;8.83;;;;;;;22.19;42.51;94335.63;6161641;28;104134;-54
2022/04/23 08:53:57;;;;;;;13.03;9.03;;;;;;;22.22;42.74;94331.53;6154619;28;103481;-54
2022/04/23 08:56:59;;;;;;;13.70;9.80;;;;;;;22.22;45.26;94334.19;6180169;28;104029;-53
2022/04/23 09:00:01;;;;;;;35.07;10.80;;;;;;;22.21;49.63;94329.97;6163253;28;104015;-54
2022/04/23 09:03:03;;;;;;;25.43;11.83;;;;;;;22.27;51.25;94336.66;6146040;28;104090;-54
2022/04/23 09:06:05;;;;;;;18.33;11.87;;;;;;;22.23;50.96;94323.19;6163496;28;103079;-54
2022/04/23 09:09:20;;;;;;;18.20;12.33;;;;;;;22.24;51.43;94327.44;6162959;28;104277;-54
2022/04/23 09:12:26;;;;;;;15.60;12.53;;;;;;;22.31;52.14;94326.91;6166731;28;103207;-55
2022/04/23 09:25:41;;;;;;;12.97;11.67;;;;;;;22.50;49.48;94313.13;6151752;28;103915;-54
2022/04/23 09:28:48;;;;;;;12.73;11.47;;;;;;;22.50;49.29;94310.44;6160371;28;103052;-54
2022/04/23 09:32:07;;;;;;;11.80;10.70;;;;;;;22.48;50.26;94315.34;6164178;28;103043;-54
2022/04/23 09:35:12;;;;;;;11.67;10.60;;;;;;;22.50;50.35;94335.22;6178637;28;103952;-55
2022/04/23 09:38:18;;;;;;;10.67;9.57;;;;;;;22.47;49.77;94330.56;6133795;28;104678;-54
2022/04/23 09:41:31;;;;;;;9.10;8.30;;;;;;;22.46;49.80;94322.88;6157493;28;104159;-54
2022/04/23 09:44:33;;;;;;;7.80;7.10;;;;;;;22.47;50.21;94321.78;6167430;28;103148;-54
2022/04/23 09:47:35;;;;;;;8.47;7.60;;;;;;;22.45;49.68;94322.09;6157474;28;104083;-55
2022/04/23 09:50:38;;;;;;;8.40;6.53;;;;;;;22.45;49.98;94316.78;6150756;28;104795;-53
2022/04/23 09:53:40;;;;;;;7.60;6.80;;;;;;;22.45;50.21;94316.78;6171142;28;103007;-54
2022/04/23 09:56:44;;;;;;;7.60;5.93;;;;;;;22.45;49.58;94303.44;6174765;28;104065;-54
2022/04/23 09:59:45;;;;;;;6.23;5.13;;;;;;;22.47;50.47;94305.78;6145347;28;105478;-53
2022/04/23 10:02:50;;;;;;;8.97;5.50;;;;;;;22.48;50.91;94299.34;6158833;28;104148;-53
2022/04/23 10:05:53;;;;;;;5.87;4.57;;;;;;;22.46;50.77;94302.34;6160823;28;103087;-53
2022/04/23 10:08:57;;;;;;;11.67;4.80;;;;;;;22.47;50.19;94301.22;6176423;28;104068;-53
2022/04/23 10:12:06;;;;;;;8.63;4.90;;;;;;;22.55;49.21;94311.06;6148670;28;102996;-55
2022/04/23 10:15:08;;;;;;;10.50;5.40;;;;;;;22.56;48.43;94322.50;6183723;28;103037;-56
2022/04/23 10:18:11;;;;;;;11.20;5.00;;;;;;;22.63;48.99;94307.56;6180544;28;103414;-53
2022/04/23 10:21:30;;;;;;;11.90;5.30;;;;;;;22.67;49.58;94313.78;6155423;28;103051;-53
2022/04/23 10:24:37;;;;;;;6.90;4.67;;;;;;;22.69;49.01;94306.25;6160390;28;104835;-53
2022/04/23 10:27:41;;;;;;;7.07;4.67;;;;;;;22.69;47.53;94303.59;6157809;28;103153;-54
2022/04/23 10:30:46;;;;;;;5.43;3.50;;;;;;;22.72;46.27;94302.16;6164929;28;103357;-54
2022/04/23 10:33:51;;;;;;;8.23;3.30;;;;;;;22.75;46.71;94298.84;6150301;28;104991;-52
2022/04/23 10:37:16;;;;;;;6.77;3.43;;;;;;;22.70;45.72;94307.03;6174801;28;103100;-52
2022/04/23 10:40:19;;;;;;;7.40;3.37;;;;;;;22.68;44.67;94304.72;6162280;28;103371;-54
2022/04/23 10:43:21;;;;;;;4.10;3.50;;;;;;;22.67;45.03;94297.78;6169427;28;103404;-53
2022/04/23 10:46:40;;;;;;;7.40;4.50;;;;;;;22.56;43.91;94299.28;6167766;28;104035;-54
2022/04/23 10:49:43;;;;;;;2.67;2.47;;;;;;;22.38;43.75;94306.63;6162022;28;103596;-52
2022/04/23 10:52:46;;;;;;;5.77;2.73;;;;;;;22.44;44.03;94299.22;6157857;28;103494;-53
2022/04/23 10:56:11;;;;;;;10.17;3.73;;;;;;;22.54;44.01;94303.38;6167665;28;103684;-54
2022/04/23 10:59:34;;;;;;;5.77;2.47;;;;;;;22.61;43.95;94299.09;6142987;28;102952;-52
2022/04/23 11:02:37;;;;;;;4.60;2.73;;;;;;;22.39;43.46;94294.09;6156988;28;103557;-54
2022/04/23 11:13:00;;;;;;;5.07;2.30;;;;;;;22.24;42.73;94306.09;6127648;28;104305;-51
2022/04/23 11:16:17;;;;;;;4.10;3.00;;;;;;;22.30;42.42;94296.03;6132928;28;103256;-50
2022/04/23 11:19:19;;;;;;;8.13;3.00;;;;;;;22.31;42.22;94295.69;6143548;28;103061;-50
2022/04/23 11:22:26;;;;;;;7.20;3.00;;;;;;;22.33;42.73;94298.81;6162646;28;103367;-50
2022/04/23 11:25:30;;;;;;;2.87;2.60;;;;;;;22.33;42.90;94298.81;6157001;28;103730;-51
2022/04/23 11:28:32;;;;;;;3.20;2.87;;;;;;;22.34;42.78;94287.03;6150242;28;103578;-52
2022/04/23 11:31:33;;;;;;;3.00;2.67;;;;;;;22.35;43.45;94279.84;6149918;28;104449;-50
2022/04/23 11:34:39;;;;;;;4.10;2.90;;;;;;;22.34;43.34;94286.25;6163838;28;103187;-54
2022/04/23 11:37:43;;;;;;;3.67;3.37;;;;;;;22.34;43.25;94280.94;6184668;28;103128;-50
2022/04/23 11:40:45;;;;;;;3.53;2.80;;;;;;;22.33;43.72;94282.03;6171082;28;104269;-50
2022/04/23 11:43:46;;;;;;;3.60;3.30;;;;;;;22.30;43.66;94277.38;6122524;28;104011;-50
2022/04/23 11:46:51;;;;;;;4.90;3.37;;;;;;;22.29;43.79;94281.13;6150458;28;104340;-51
2022/04/23 11:49:53;;;;;;;3.93;3.40;;;;;;;22.30;44.16;94282.69;6163631;28;104038;-50
2022/04/23 11:53:03;;;;;;;5.40;3.30;;;;;;;22.30;43.74;94282.69;6174974;28;104349;-50
2022/04/23 11:56:05;;;;;;;6.00;3.13;;;;;;;22.30;44.36;94280.81;6172383;28;103199;-52
2022/04/23 11:59:10;;;;;;;3.20;2.90;;;;;;;22.34;44.87;94286.25;6147132;28;104072;-57
2022/04/23 12:02:17;;;;;;;4.27;3.40;;;;;;;22.35;45.45;94285.97;6156102;28;104147;-50
2022/04/23 12:05:23;;;;;;;4.07;3.30;;;;;;;22.37;44.91;94283.75;6157120;28;104143;-53
2022/04/23 12:08:25;;;;;;;4.33;3.47;;;;;;;22.38;45.15;94284.53;6164504;28;104043;-50
2022/04/23 12:11:28;;;;;;;7.93;3.77;;;;;;;22.41;45.51;94289.22;6149260;28;103956;-51
2022/04/23 12:14:30;;;;;;;7.30;3.73;;;;;;;22.42;45.68;94293.44;6176187;28;103496;-49
2022/04/23 12:17:45;;;;;;;8.93;4.07;;;;;;;22.43;45.48;94302.97;6165118;28;103109;-52
2022/04/23 12:20:47;;;;;;;6.97;3.27;;;;;;;22.42;45.85;94312.88;6155597;28;104023;-50
2022/04/23 12:23:50;;;;;;;4.53;3.30;;;;;;;22.44;45.77;94309.88;6170506;28;104119;-49
2022/04/23 12:27:00;;;;;;;3.97;3.40;;;;;;;22.45;45.30;94300.78;6171986;28;103047;-50
2022/04/23 12:43:52;;;;;;;6.87;3.60;;;;;;;22.48;45.77;94286.78;6110920;28;104834;-50
2022/04/23 12:46:55;;;;;;;5.53;3.33;;;;;;;22.48;45.85;94283.34;6110954;28;103204;-50
2022/04/23 12:50:02;;;;;;;5.00;3.57;;;;;;;22.48;45.31;94286.00;6152087;28;105392;-51
2022/04/23 12:53:04;;;;;;;3.93;3.47;;;;;;;22.49;45.30;94280.34;6163280;28;104027;-49
2022/04/23 12:56:08;;;;;;;5.63;3.53;;;;;;;22.47;45.66;94279.91;6163352;28;103414;-50
2022/04/23 12:59:11;;;;;;;3.73;3.43;;;;;;;22.45;45.23;94276.00;6182299;28;103014;-54
2022/04/23 13:02:13;;;;;;;3.50;3.20;;;;;;;22.48;45.25;94280.66;6153127;28;104153;-51
2022/04/23 13:05:15;;;;;;;4.13;3.50;;;;;;;22.47;45.13;94276.44;6170594;28;103127;-50
2022/04/23 13:11:37;;;;;;;7.37;6.67;;;;;;;22.49;45.67;94267.00;6183984;28;103193;-53
2022/04/23 13:14:41;;;;;;;8.83;8.13;;;;;;;22.46;45.36;94259.66;6173466;28;104640;-53
2022/04/23 13:17:45;;;;;;;11.10;10.10;;;;;;;22.45;45.30;94258.13;6173210;28;104381;-54
2022/04/23 13:20:46;;;;;;;11.27;10.27;;;;;;;22.48;45.10;94254.78;6159252;28;103348;-53
2022/04/23 13:23:51;;;;;;;12.23;11.33;;;;;;;22.49;45.11;94253.69;6157509;28;103097;-53
2022/04/23 13:26:52;;;;;;;20.30;18.30;;;;;;;22.55;45.08;94263.06;6178928;28;104193;-53
2022/04/23 13:29:54;;;;;;;20.13;18.37;;;;;;;22.53;45.06;94253.81;6184798;28;103283;-53
2022/04/23 13:32:56;;;;;;;22.57;20.40;;;;;;;22.50;44.87;94257.91;6156951;28;103221;-55
2022/04/23 13:35:57;;;;;;;23.93;21.70;;;;;;;22.50;44.67;94254.47;6150322;28;104884;-57
2022/04/23 13:38:59;;;;;;;25.33;23.13;;;;;;;22.51;44.88;94256.03;6161195;28;103032;-54
2022/04/23 13:42:01;;;;;;;24.67;22.47;;;;;;;22.47;45.27;94263.91;6176359;28;103379;-53
2022/04/23 13:45:05;;;;;;;24.40;22.40;;;;;;;22.50;45.49;94252.56;6160578;28;103237;-53
2022/04/23 13:48:07;;;;;;;24.77;22.60;;;;;;;22.53;45.44;94253.81;6147467;28;103070;-55
2022/04/23 13:51:09;;;;;;;24.50;22.30;;;;;;;22.56;45.42;94261.16;6162153;28;103665;-53
2022/04/23 13:54:11;;;;;;;23.77;21.67;;;;;;;22.56;44.96;94259.28;6159808;28;103105;-53
2022/04/23 13:57:13;;;;;;;24.93;22.47;;;;;;;22.57;44.91;94252.88;6157411;28;103179;-56
2022/04/23 14:00:15;;;;;;;25.97;23.67;;;;;;;22.58;44.79;94262.44;6155371;28;103238;-53
2022/04/23 14:10:04;;;;;;;23.43;21.00;;;;;;;22.64;45.33;94252.31;6147977;28;104345;-54
2022/04/23 14:13:06;;;;;;;24.67;22.27;;;;;;;22.69;45.30;94252.91;6160086;28;103028;-54
2022/04/23 14:16:09;;;;;;;22.50;20.37;;;;;;;22.72;45.36;94246.16;6158536;28;103121;-56
2022/04/23 14:19:11;;;;;;;21.63;19.47;;;;;;;22.75;45.00;94250.03;6169046;28;103530;-53
2022/04/23 14:22:13;;;;;;;22.43;20.03;;;;;;;22.73;44.52;94241.59;6157198;28;103018;-54
2022/04/23 14:25:15;;;;;;;21.40;19.47;;;;;;;22.65;44.71;94233.31;6160002;28;104082;-53
2022/04/23 14:28:16;;;;;;;21.03;19.20;;;;;;;22.66;44.95;94244.78;6156916;28;104609;-55
2022/04/23 14:31:18;;;;;;;24.13;20.60;;;;;;;22.73;45.30;94253.03;6163837;28;103912;-53
2022/04/23 14:34:20;;;;;;;22.07;20.00;;;;;;;22.72;44.97;94258.69;6154303;28;102907;-53
2022/04/23 14:37:22;;;;;;;23.57;21.37;;;;;;;22.77;44.87;94253.16;6169751;28;103028;-54
2022/04/23 14:40:24;;;;;;;26.50;24.30;;;;;;;22.76;45.82;94259.59;6159768;28;103345;-53
2022/04/23 14:43:27;;;;;;;26.03;23.47;;;;;;;22.82;46.51;94256.38;6157868;28;104316;-54
2022/04/23 14:46:29;;;;;;;32.40;29.80;;;;;;;22.81;49.75;94267.38;6168412;28;103873;-52
2022/04/23 14:49:31;;;;;;;37.30;34.00;;;;;;;22.75;52.50;94263.38;6159096;28;103066;-52
2022/04/23 14:55:54;;;;;;;35.87;32.70;;;;;;;22.73;50.79;94260.25;6158321;28;102999;-52
2022/04/23 14:58:56;;;;;;;32.50;29.73;;;;;;;22.75;49.58;94260.72;6156383;28;104233;-53
2022/04/23 15:01:57;;;;;;;29.50;27.10;;;;;;;22.74;49.15;94264.47;6157225;28;103747;-53
2022/04/23 15:04:59;;;;;;;29.10;26.70;;;;;;;22.74;48.22;94264.47;6158959;28;104229;-54